sensor_id;sensor_type;location;lat;lon;timestamp;P1;durP1;ratioP1;P2;durP2;ratioP2
30215;SDS011;17028;47.642;8.070;2022-07-25T00:01:56;10.55;;;8.15;;
30215;SDS011;17028;47.642;8.070;2022-07-25T00:06:57;9.10;;;7.85;;
30215;SDS011;17028;47.642;8.070;2022-07-25T00:11:58;8.98;;;7.70;;
30215;SDS011;17028;47.642;8.070;2022-07-25T00:16:59;8.82;;;7.93;;
30215;SDS011;17028;47.642;8.070;2022-07-25T00:22:00;9.35;;;8.32;;
30215;SDS011;17028;47.642;8.070;2022-07-25T00:27:01;8.85;;;7.80;;
30215;SDS011;17028;47.642;8.070;2022-07-25T00:32:02;10.55;;;7.95;;
30215;SDS011;17028;47.642;8.070;2022-07-25T00:37:04;9.52;;;8.52;;
30215;SDS011;17028;47.642;8.070;2022-07-25T00:42:05;9.25;;;8.02;;
30215;SDS011;17028;47.642;8.070;2022-07-25T00:47:06;10.18;;;8.38;;
30215;SDS011;17028;47.642;8.070;2022-07-25T00:52:07;9.10;;;8.15;;
30215;SDS011;17028;47.642;8.070;2022-07-25T00:57:08;8.82;;;7.93;;
30215;SDS011;17028;47.642;8.070;2022-07-25T01:02:09;9.13;;;8.18;;
30215;SDS011;17028;47.642;8.070;2022-07-25T01:07:10;9.18;;;8.27;;
30215;SDS011;17028;47.642;8.070;2022-07-25T01:12:11;9.50;;;8.35;;
30215;SDS011;17028;47.642;8.070;2022-07-25T01:17:12;11.23;;;8.98;;
30215;SDS011;17028;47.642;8.070;2022-07-25T01:22:13;10.00;;;8.85;;
30215;SDS011;17028;47.642;8.070;2022-07-25T01:27:14;10.00;;;8.88;;
30215;SDS011;17028;47.642;8.070;2022-07-25T01:32:15;9.75;;;8.75;;
30215;SDS011;17028;47.642;8.070;2022-07-25T01:37:16;10.82;;;8.82;;
30215;SDS011;17028;47.642;8.070;2022-07-25T01:42:17;10.75;;;9.63;;
30215;SDS011;17028;47.642;8.070;2022-07-25T01:47:18;10.80;;;9.25;;
30215;SDS011;17028;47.642;8.070;2022-07-25T01:52:20;11.27;;;10.10;;
30215;SDS011;17028;47.642;8.070;2022-07-25T01:57:21;10.77;;;8.98;;
30215;SDS011;17028;47.642;8.070;2022-07-25T02:02:22;10.43;;;9.25;;
30215;SDS011;17028;47.642;8.070;2022-07-25T02:07:23;10.77;;;9.68;;
30215;SDS011;17028;47.642;8.070;2022-07-25T02:12:24;9.98;;;8.98;;
30215;SDS011;17028;47.642;8.070;2022-07-25T02:17:25;12.00;;;9.50;;
30215;SDS011;17028;47.642;8.070;2022-07-25T02:22:26;10.55;;;9.25;;
30215;SDS011;17028;47.642;8.070;2022-07-25T02:27:27;10.80;;;9.70;;
30215;SDS011;17028;47.642;8.070;2022-07-25T02:32:28;10.30;;;9.30;;
30215;SDS011;17028;47.642;8.070;2022-07-25T02:37:29;12.13;;;9.32;;
30215;SDS011;17028;47.642;8.070;2022-07-25T02:42:30;11.40;;;9.75;;
30215;SDS011;17028;47.642;8.070;2022-07-25T02:47:31;12.00;;;9.57;;
30215;SDS011;17028;47.642;8.070;2022-07-25T02:52:32;10.65;;;9.55;;
30215;SDS011;17028;47.642;8.070;2022-07-25T02:57:33;10.07;;;9.07;;
30215;SDS011;17028;47.642;8.070;2022-07-25T03:02:34;10.50;;;9.40;;
30215;SDS011;17028;47.642;8.070;2022-07-25T03:07:35;10.75;;;9.65;;
30215;SDS011;17028;47.642;8.070;2022-07-25T03:12:37;10.25;;;9.13;;
30215;SDS011;17028;47.642;8.070;2022-07-25T03:17:39;11.13;;;9.50;;
30215;SDS011;17028;47.642;8.070;2022-07-25T03:22:40;12.82;;;10.32;;
30215;SDS011;17028;47.642;8.070;2022-07-25T03:27:41;12.07;;;9.55;;
30215;SDS011;17028;47.642;8.070;2022-07-25T03:32:42;10.18;;;9.18;;
30215;SDS011;17028;47.642;8.070;2022-07-25T03:37:44;10.77;;;9.73;;
30215;SDS011;17028;47.642;8.070;2022-07-25T03:42:45;10.43;;;9.43;;
30215;SDS011;17028;47.642;8.070;2022-07-25T03:47:46;11.77;;;9.73;;
30215;SDS011;17028;47.642;8.070;2022-07-25T03:52:47;11.15;;;9.70;;
30215;SDS011;17028;47.642;8.070;2022-07-25T03:57:48;10.90;;;9.48;;
30215;SDS011;17028;47.642;8.070;2022-07-25T04:02:49;10.65;;;9.55;;
30215;SDS011;17028;47.642;8.070;2022-07-25T04:07:50;10.63;;;9.48;;
30215;SDS011;17028;47.642;8.070;2022-07-25T04:12:51;10.75;;;9.60;;
30215;SDS011;17028;47.642;8.070;2022-07-25T04:17:52;11.75;;;10.40;;
30215;SDS011;17028;47.642;8.070;2022-07-25T04:22:53;10.93;;;9.82;;
30215;SDS011;17028;47.642;8.070;2022-07-25T04:27:54;11.32;;;10.10;;
30215;SDS011;17028;47.642;8.070;2022-07-25T04:32:55;11.63;;;9.43;;
30215;SDS011;17028;47.642;8.070;2022-07-25T04:37:56;11.00;;;9.90;;
30215;SDS011;17028;47.642;8.070;2022-07-25T04:42:57;11.30;;;10.18;;
30215;SDS011;17028;47.642;8.070;2022-07-25T04:47:58;12.52;;;9.75;;
30215;SDS011;17028;47.642;8.070;2022-07-25T04:53:00;10.70;;;9.60;;
30215;SDS011;17028;47.642;8.070;2022-07-25T04:58:01;10.50;;;9.45;;
30215;SDS011;17028;47.642;8.070;2022-07-25T05:03:02;10.85;;;9.18;;
30215;SDS011;17028;47.642;8.070;2022-07-25T05:08:03;10.98;;;9.93;;
30215;SDS011;17028;47.642;8.070;2022-07-25T05:13:04;10.60;;;9.50;;
30215;SDS011;17028;47.642;8.070;2022-07-25T05:18:05;10.48;;;9.38;;
30215;SDS011;17028;47.642;8.070;2022-07-25T05:23:06;9.95;;;8.90;;
30215;SDS011;17028;47.642;8.070;2022-07-25T05:28:07;8.93;;;8.02;;
30215;SDS011;17028;47.642;8.070;2022-07-25T05:33:08;8.07;;;7.28;;
30215;SDS011;17028;47.642;8.070;2022-07-25T05:38:09;7.40;;;6.65;;
30215;SDS011;17028;47.642;8.070;2022-07-25T05:43:11;7.90;;;7.10;;
30215;SDS011;17028;47.642;8.070;2022-07-25T05:48:12;13.02;;;11.63;;
30215;SDS011;17028;47.642;8.070;2022-07-25T05:53:14;13.75;;;11.82;;
30215;SDS011;17028;47.642;8.070;2022-07-25T05:58:15;11.15;;;10.05;;
30215;SDS011;17028;47.642;8.070;2022-07-25T06:03:16;10.45;;;9.45;;
30215;SDS011;17028;47.642;8.070;2022-07-25T06:08:18;10.65;;;9.55;;
30215;SDS011;17028;47.642;8.070;2022-07-25T06:13:19;11.02;;;9.93;;
30215;SDS011;17028;47.642;8.070;2022-07-25T06:18:20;10.57;;;9.57;;
30215;SDS011;17028;47.642;8.070;2022-07-25T06:23:22;10.18;;;9.18;;
30215;SDS011;17028;47.642;8.070;2022-07-25T06:28:23;9.65;;;8.75;;
30215;SDS011;17028;47.642;8.070;2022-07-25T06:33:24;8.93;;;8.02;;
30215;SDS011;17028;47.642;8.070;2022-07-25T06:38:25;10.25;;;9.25;;
30215;SDS011;17028;47.642;8.070;2022-07-25T06:43:27;9.65;;;8.75;;
30215;SDS011;17028;47.642;8.070;2022-07-25T06:48:28;9.73;;;8.73;;
30215;SDS011;17028;47.642;8.070;2022-07-25T06:53:29;11.38;;;10.27;;
30215;SDS011;17028;47.642;8.070;2022-07-25T06:58:30;11.45;;;10.25;;
30215;SDS011;17028;47.642;8.070;2022-07-25T07:03:32;11.40;;;10.20;;
30215;SDS011;17028;47.642;8.070;2022-07-25T07:08:37;10.43;;;9.32;;
30215;SDS011;17028;47.642;8.070;2022-07-25T07:13:38;10.43;;;9.43;;
30215;SDS011;17028;47.642;8.070;2022-07-25T07:18:39;15.10;;;9.93;;
30215;SDS011;17028;47.642;8.070;2022-07-25T07:23:40;11.27;;;10.07;;
30215;SDS011;17028;47.642;8.070;2022-07-25T07:28:42;10.85;;;9.75;;
30215;SDS011;17028;47.642;8.070;2022-07-25T07:33:43;13.05;;;10.40;;
30215;SDS011;17028;47.642;8.070;2022-07-25T07:38:44;11.57;;;10.40;;
30215;SDS011;17028;47.642;8.070;2022-07-25T07:43:45;11.45;;;10.20;;
30215;SDS011;17028;47.642;8.070;2022-07-25T07:48:46;11.77;;;10.57;;
30215;SDS011;17028;47.642;8.070;2022-07-25T07:53:47;11.55;;;10.45;;
30215;SDS011;17028;47.642;8.070;2022-07-25T07:59:07;11.50;;;10.40;;
30215;SDS011;17028;47.642;8.070;2022-07-25T08:04:08;12.23;;;10.88;;
30215;SDS011;17028;47.642;8.070;2022-07-25T08:09:09;12.60;;;11.40;;
30215;SDS011;17028;47.642;8.070;2022-07-25T08:14:10;11.93;;;10.65;;
30215;SDS011;17028;47.642;8.070;2022-07-25T08:19:11;11.23;;;10.13;;
30215;SDS011;17028;47.642;8.070;2022-07-25T08:24:12;11.27;;;10.15;;
30215;SDS011;17028;47.642;8.070;2022-07-25T08:29:13;11.63;;;10.52;;
30215;SDS011;17028;47.642;8.070;2022-07-25T08:34:14;11.95;;;10.60;;
30215;SDS011;17028;47.642;8.070;2022-07-25T08:39:15;11.63;;;10.43;;
30215;SDS011;17028;47.642;8.070;2022-07-25T08:44:16;11.18;;;10.02;;
30215;SDS011;17028;47.642;8.070;2022-07-25T08:49:18;12.27;;;10.65;;
30215;SDS011;17028;47.642;8.070;2022-07-25T08:54:20;12.10;;;10.18;;
30215;SDS011;17028;47.642;8.070;2022-07-25T08:59:22;10.85;;;9.73;;
30215;SDS011;17028;47.642;8.070;2022-07-25T09:04:24;11.07;;;9.98;;
30215;SDS011;17028;47.642;8.070;2022-07-25T09:09:29;10.45;;;9.40;;
30215;SDS011;17028;47.642;8.070;2022-07-25T09:14:41;8.38;;;7.53;;
30215;SDS011;17028;47.642;8.070;2022-07-25T09:19:50;7.00;;;6.25;;
30215;SDS011;17028;47.642;8.070;2022-07-25T09:24:55;7.57;;;6.18;;
30215;SDS011;17028;47.642;8.070;2022-07-25T09:29:56;6.68;;;6.07;;
30215;SDS011;17028;47.642;8.070;2022-07-25T09:34:57;7.57;;;5.85;;
30215;SDS011;17028;47.642;8.070;2022-07-25T09:39:58;6.00;;;5.38;;
30215;SDS011;17028;47.642;8.070;2022-07-25T09:45:06;7.13;;;6.20;;
30215;SDS011;17028;47.642;8.070;2022-07-25T09:50:14;6.20;;;5.60;;
30215;SDS011;17028;47.642;8.070;2022-07-25T09:55:15;8.40;;;6.30;;
30215;SDS011;17028;47.642;8.070;2022-07-25T10:00:24;7.53;;;6.10;;
30215;SDS011;17028;47.642;8.070;2022-07-25T10:10:46;7.75;;;5.78;;
30215;SDS011;17028;47.642;8.070;2022-07-25T10:15:51;7.70;;;5.78;;
30215;SDS011;17028;47.642;8.070;2022-07-25T10:20:54;6.15;;;5.25;;
30215;SDS011;17028;47.642;8.070;2022-07-25T10:26:15;6.30;;;5.47;;
30215;SDS011;17028;47.642;8.070;2022-07-25T10:31:21;6.22;;;5.45;;
30215;SDS011;17028;47.642;8.070;2022-07-25T10:36:41;7.85;;;5.78;;
30215;SDS011;17028;47.642;8.070;2022-07-25T10:41:54;6.10;;;5.43;;
30215;SDS011;17028;47.642;8.070;2022-07-25T10:47:05;6.85;;;5.68;;
30215;SDS011;17028;47.642;8.070;2022-07-25T10:52:18;6.35;;;5.68;;
30215;SDS011;17028;47.642;8.070;2022-07-25T10:57:19;7.50;;;5.45;;
30215;SDS011;17028;47.642;8.070;2022-07-25T11:02:22;5.88;;;5.28;;
30215;SDS011;17028;47.642;8.070;2022-07-25T11:07:23;6.72;;;5.22;;
30215;SDS011;17028;47.642;8.070;2022-07-25T11:12:25;7.47;;;5.78;;
30215;SDS011;17028;47.642;8.070;2022-07-25T11:17:26;5.82;;;5.20;;
30215;SDS011;17028;47.642;8.070;2022-07-25T11:22:29;6.35;;;5.45;;
30215;SDS011;17028;47.642;8.070;2022-07-25T11:27:32;7.05;;;5.93;;
30215;SDS011;17028;47.642;8.070;2022-07-25T11:32:37;6.38;;;5.78;;
30215;SDS011;17028;47.642;8.070;2022-07-25T11:37:40;6.75;;;6.05;;
30215;SDS011;17028;47.642;8.070;2022-07-25T11:42:44;6.67;;;6.03;;
30215;SDS011;17028;47.642;8.070;2022-07-25T11:47:46;6.80;;;5.50;;
30215;SDS011;17028;47.642;8.070;2022-07-25T11:52:56;7.05;;;6.07;;
30215;SDS011;17028;47.642;8.070;2022-07-25T11:57:59;7.68;;;6.00;;
30215;SDS011;17028;47.642;8.070;2022-07-25T12:03:05;7.30;;;5.90;;
30215;SDS011;17028;47.642;8.070;2022-07-25T12:08:09;8.18;;;6.13;;
30215;SDS011;17028;47.642;8.070;2022-07-25T12:13:22;8.43;;;5.88;;
30215;SDS011;17028;47.642;8.070;2022-07-25T12:18:25;6.97;;;6.13;;
30215;SDS011;17028;47.642;8.070;2022-07-25T12:23:27;6.35;;;5.75;;
30215;SDS011;17028;47.642;8.070;2022-07-25T12:28:28;6.88;;;6.10;;
30215;SDS011;17028;47.642;8.070;2022-07-25T12:33:29;6.85;;;6.13;;
30215;SDS011;17028;47.642;8.070;2022-07-25T12:38:30;6.00;;;5.25;;
30215;SDS011;17028;47.642;8.070;2022-07-25T12:43:31;6.93;;;5.88;;
30215;SDS011;17028;47.642;8.070;2022-07-25T12:48:32;9.93;;;6.40;;
30215;SDS011;17028;47.642;8.070;2022-07-25T12:53:33;7.10;;;6.00;;
30215;SDS011;17028;47.642;8.070;2022-07-25T12:58:34;8.32;;;6.07;;
30215;SDS011;17028;47.642;8.070;2022-07-25T13:03:37;8.15;;;6.40;;
30215;SDS011;17028;47.642;8.070;2022-07-25T13:08:38;6.43;;;5.80;;
30215;SDS011;17028;47.642;8.070;2022-07-25T13:13:39;7.00;;;5.95;;
30215;SDS011;17028;47.642;8.070;2022-07-25T13:18:40;6.38;;;5.65;;
30215;SDS011;17028;47.642;8.070;2022-07-25T13:23:41;6.15;;;5.43;;
30215;SDS011;17028;47.642;8.070;2022-07-25T13:28:42;6.97;;;5.65;;
30215;SDS011;17028;47.642;8.070;2022-07-25T13:33:43;6.70;;;5.55;;
30215;SDS011;17028;47.642;8.070;2022-07-25T13:38:44;6.10;;;5.25;;
30215;SDS011;17028;47.642;8.070;2022-07-25T13:43:47;6.72;;;5.60;;
30215;SDS011;17028;47.642;8.070;2022-07-25T13:48:48;8.25;;;5.28;;
30215;SDS011;17028;47.642;8.070;2022-07-25T13:53:49;5.88;;;5.28;;
30215;SDS011;17028;47.642;8.070;2022-07-25T13:58:50;7.72;;;5.78;;
30215;SDS011;17028;47.642;8.070;2022-07-25T14:03:51;6.95;;;5.38;;
30215;SDS011;17028;47.642;8.070;2022-07-25T14:08:52;7.10;;;5.97;;
30215;SDS011;17028;47.642;8.070;2022-07-25T14:13:53;6.00;;;5.03;;
30215;SDS011;17028;47.642;8.070;2022-07-25T14:18:55;5.00;;;4.50;;
30215;SDS011;17028;47.642;8.070;2022-07-25T14:23:56;6.88;;;5.10;;
30215;SDS011;17028;47.642;8.070;2022-07-25T14:28:57;5.80;;;4.88;;
30215;SDS011;17028;47.642;8.070;2022-07-25T14:33:58;7.97;;;5.65;;
30215;SDS011;17028;47.642;8.070;2022-07-25T14:39:00;5.72;;;4.82;;
30215;SDS011;17028;47.642;8.070;2022-07-25T14:44:01;7.80;;;5.13;;
30215;SDS011;17028;47.642;8.070;2022-07-25T14:49:02;5.18;;;4.68;;
30215;SDS011;17028;47.642;8.070;2022-07-25T14:54:03;6.03;;;5.03;;
30215;SDS011;17028;47.642;8.070;2022-07-25T14:59:05;7.55;;;4.88;;
30215;SDS011;17028;47.642;8.070;2022-07-25T15:04:07;5.97;;;5.35;;
30215;SDS011;17028;47.642;8.070;2022-07-25T15:09:08;6.53;;;4.88;;
30215;SDS011;17028;47.642;8.070;2022-07-25T15:14:09;7.13;;;5.70;;
30215;SDS011;17028;47.642;8.070;2022-07-25T15:19:10;6.80;;;5.40;;
30215;SDS011;17028;47.642;8.070;2022-07-25T15:24:11;6.25;;;5.35;;
30215;SDS011;17028;47.642;8.070;2022-07-25T15:29:13;9.25;;;5.53;;
30215;SDS011;17028;47.642;8.070;2022-07-25T15:34:19;8.10;;;5.40;;
30215;SDS011;17028;47.642;8.070;2022-07-25T15:39:20;7.10;;;5.63;;
30215;SDS011;17028;47.642;8.070;2022-07-25T15:44:22;6.22;;;4.78;;
30215;SDS011;17028;47.642;8.070;2022-07-25T15:49:25;6.82;;;5.35;;
30215;SDS011;17028;47.642;8.070;2022-07-25T15:54:26;7.28;;;5.43;;
30215;SDS011;17028;47.642;8.070;2022-07-25T15:59:27;7.90;;;5.78;;
30215;SDS011;17028;47.642;8.070;2022-07-25T16:04:28;6.57;;;5.40;;
30215;SDS011;17028;47.642;8.070;2022-07-25T16:09:30;7.38;;;5.57;;
30215;SDS011;17028;47.642;8.070;2022-07-25T16:14:32;7.40;;;5.65;;
30215;SDS011;17028;47.642;8.070;2022-07-25T16:19:33;6.50;;;5.30;;
30215;SDS011;17028;47.642;8.070;2022-07-25T16:24:34;6.93;;;5.55;;
30215;SDS011;17028;47.642;8.070;2022-07-25T16:29:37;7.20;;;5.60;;
30215;SDS011;17028;47.642;8.070;2022-07-25T16:34:38;10.00;;;5.95;;
30215;SDS011;17028;47.642;8.070;2022-07-25T16:39:39;7.85;;;5.63;;
30215;SDS011;17028;47.642;8.070;2022-07-25T16:44:40;5.65;;;5.05;;
30215;SDS011;17028;47.642;8.070;2022-07-25T16:49:41;6.32;;;4.80;;
30215;SDS011;17028;47.642;8.070;2022-07-25T16:54:42;7.18;;;5.68;;
30215;SDS011;17028;47.642;8.070;2022-07-25T16:59:43;8.02;;;5.28;;
30215;SDS011;17028;47.642;8.070;2022-07-25T17:04:44;6.22;;;5.13;;
30215;SDS011;17028;47.642;8.070;2022-07-25T17:09:45;9.00;;;4.65;;
30215;SDS011;17028;47.642;8.070;2022-07-25T17:14:47;8.20;;;4.70;;
30215;SDS011;17028;47.642;8.070;2022-07-25T17:19:48;7.50;;;4.55;;
30215;SDS011;17028;47.642;8.070;2022-07-25T17:24:49;7.65;;;4.85;;
30215;SDS011;17028;47.642;8.070;2022-07-25T17:29:50;6.88;;;4.88;;
30215;SDS011;17028;47.642;8.070;2022-07-25T17:34:51;6.35;;;5.03;;
30215;SDS011;17028;47.642;8.070;2022-07-25T17:39:53;6.28;;;4.65;;
30215;SDS011;17028;47.642;8.070;2022-07-25T17:44:54;7.55;;;4.93;;
30215;SDS011;17028;47.642;8.070;2022-07-25T17:49:55;6.20;;;4.32;;
30215;SDS011;17028;47.642;8.070;2022-07-25T17:54:56;5.18;;;4.50;;
30215;SDS011;17028;47.642;8.070;2022-07-25T17:59:58;7.63;;;4.28;;
30215;SDS011;17028;47.642;8.070;2022-07-25T18:04:59;5.75;;;4.55;;
30215;SDS011;17028;47.642;8.070;2022-07-25T18:10:00;6.57;;;4.95;;
30215;SDS011;17028;47.642;8.070;2022-07-25T18:15:01;6.22;;;4.43;;
30215;SDS011;17028;47.642;8.070;2022-07-25T18:20:03;5.72;;;4.65;;
30215;SDS011;17028;47.642;8.070;2022-07-25T18:25:04;7.38;;;4.38;;
30215;SDS011;17028;47.642;8.070;2022-07-25T18:30:06;5.78;;;4.60;;
30215;SDS011;17028;47.642;8.070;2022-07-25T18:35:08;7.13;;;4.47;;
30215;SDS011;17028;47.642;8.070;2022-07-25T18:40:10;5.25;;;4.15;;
30215;SDS011;17028;47.642;8.070;2022-07-25T18:45:12;4.95;;;3.88;;
30215;SDS011;17028;47.642;8.070;2022-07-25T18:50:13;6.40;;;4.32;;
30215;SDS011;17028;47.642;8.070;2022-07-25T18:55:14;5.00;;;3.90;;
30215;SDS011;17028;47.642;8.070;2022-07-25T19:00:15;5.88;;;4.53;;
30215;SDS011;17028;47.642;8.070;2022-07-25T19:05:17;7.30;;;4.55;;
30215;SDS011;17028;47.642;8.070;2022-07-25T19:10:18;7.20;;;3.90;;
30215;SDS011;17028;47.642;8.070;2022-07-25T19:15:19;5.95;;;4.60;;
30215;SDS011;17028;47.642;8.070;2022-07-25T19:20:20;6.35;;;4.40;;
30215;SDS011;17028;47.642;8.070;2022-07-25T19:25:22;5.63;;;4.43;;
30215;SDS011;17028;47.642;8.070;2022-07-25T19:30:23;7.18;;;4.53;;
30215;SDS011;17028;47.642;8.070;2022-07-25T19:35:24;5.63;;;4.60;;
30215;SDS011;17028;47.642;8.070;2022-07-25T19:40:25;5.15;;;4.32;;
30215;SDS011;17028;47.642;8.070;2022-07-25T19:45:27;6.75;;;4.32;;
30215;SDS011;17028;47.642;8.070;2022-07-25T19:50:28;5.57;;;4.43;;
30215;SDS011;17028;47.642;8.070;2022-07-25T19:55:29;4.72;;;4.05;;
30215;SDS011;17028;47.642;8.070;2022-07-25T20:00:30;4.70;;;3.63;;
30215;SDS011;17028;47.642;8.070;2022-07-25T20:05:31;4.40;;;3.67;;
30215;SDS011;17028;47.642;8.070;2022-07-25T20:10:32;4.25;;;3.58;;
30215;SDS011;17028;47.642;8.070;2022-07-25T20:15:33;4.95;;;4.20;;
30215;SDS011;17028;47.642;8.070;2022-07-25T20:20:34;4.35;;;3.65;;
30215;SDS011;17028;47.642;8.070;2022-07-25T20:25:35;5.03;;;3.80;;
30215;SDS011;17028;47.642;8.070;2022-07-25T20:30:36;4.10;;;3.33;;
30215;SDS011;17028;47.642;8.070;2022-07-25T20:35:37;4.38;;;3.72;;
30215;SDS011;17028;47.642;8.070;2022-07-25T20:40:39;4.82;;;3.97;;
30215;SDS011;17028;47.642;8.070;2022-07-25T20:45:40;6.10;;;4.53;;
30215;SDS011;17028;47.642;8.070;2022-07-25T20:50:42;5.43;;;4.47;;
30215;SDS011;17028;47.642;8.070;2022-07-25T20:55:43;5.50;;;4.63;;
30215;SDS011;17028;47.642;8.070;2022-07-25T21:00:44;7.43;;;4.40;;
30215;SDS011;17028;47.642;8.070;2022-07-25T21:05:46;5.80;;;4.63;;
30215;SDS011;17028;47.642;8.070;2022-07-25T21:10:47;6.07;;;4.25;;
30215;SDS011;17028;47.642;8.070;2022-07-25T21:15:48;6.20;;;4.35;;
30215;SDS011;17028;47.642;8.070;2022-07-25T21:20:49;4.85;;;3.83;;
30215;SDS011;17028;47.642;8.070;2022-07-25T21:25:50;6.63;;;4.25;;
30215;SDS011;17028;47.642;8.070;2022-07-25T21:30:51;7.18;;;4.10;;
30215;SDS011;17028;47.642;8.070;2022-07-25T21:35:52;5.50;;;3.55;;
30215;SDS011;17028;47.642;8.070;2022-07-25T21:40:54;4.63;;;3.35;;
30215;SDS011;17028;47.642;8.070;2022-07-25T21:45:58;4.90;;;3.00;;
30215;SDS011;17028;47.642;8.070;2022-07-25T21:50:58;5.07;;;2.67;;
30215;SDS011;17028;47.642;8.070;2022-07-25T21:56:00;4.53;;;3.03;;
30215;SDS011;17028;47.642;8.070;2022-07-25T22:01:01;3.90;;;2.50;;
30215;SDS011;17028;47.642;8.070;2022-07-25T22:06:02;4.28;;;2.30;;
30215;SDS011;17028;47.642;8.070;2022-07-25T22:11:03;3.30;;;2.17;;
30215;SDS011;17028;47.642;8.070;2022-07-25T22:16:04;2.95;;;2.10;;
30215;SDS011;17028;47.642;8.070;2022-07-25T22:21:05;4.45;;;2.50;;
30215;SDS011;17028;47.642;8.070;2022-07-25T22:26:07;4.00;;;2.00;;
30215;SDS011;17028;47.642;8.070;2022-07-25T22:31:08;3.50;;;2.33;;
30215;SDS011;17028;47.642;8.070;2022-07-25T22:36:09;4.72;;;2.17;;
30215;SDS011;17028;47.642;8.070;2022-07-25T22:41:10;5.35;;;2.50;;
30215;SDS011;17028;47.642;8.070;2022-07-25T22:46:11;3.47;;;2.25;;
30215;SDS011;17028;47.642;8.070;2022-07-25T22:51:12;3.80;;;2.08;;
30215;SDS011;17028;47.642;8.070;2022-07-25T22:56:13;4.15;;;2.08;;
30215;SDS011;17028;47.642;8.070;2022-07-25T23:01:18;3.85;;;2.28;;
30215;SDS011;17028;47.642;8.070;2022-07-25T23:06:19;5.68;;;2.30;;
30215;SDS011;17028;47.642;8.070;2022-07-25T23:11:21;6.22;;;2.42;;
30215;SDS011;17028;47.642;8.070;2022-07-25T23:16:22;4.50;;;2.70;;
30215;SDS011;17028;47.642;8.070;2022-07-25T23:21:27;6.00;;;2.70;;
30215;SDS011;17028;47.642;8.070;2022-07-25T23:26:28;3.30;;;2.30;;
30215;SDS011;17028;47.642;8.070;2022-07-25T23:31:29;4.18;;;2.25;;
30215;SDS011;17028;47.642;8.070;2022-07-25T23:36:30;3.80;;;2.20;;
30215;SDS011;17028;47.642;8.070;2022-07-25T23:41:31;5.53;;;2.38;;
30215;SDS011;17028;47.642;8.070;2022-07-25T23:46:32;4.68;;;2.10;;
30215;SDS011;17028;47.642;8.070;2022-07-25T23:51:33;4.22;;;2.00;;
30215;SDS011;17028;47.642;8.070;2022-07-25T23:56:35;3.78;;;2.40;;
